Flight Number: EUR1191 Duration: 3:00
Departure: Athens Int'l (LGAV) at 07:00 Distance: 1138 Nm
Arrival: Paris Charles-de-Gaulle (LFPG) at 10:00 Equipment: A330-200

Weather Information
Athens Eleftherios Venizelos International Airport, Greece (LGAV) 37-56N 023-56E May 20, 2018 - 09:20 AM EDT / 2018.05.20 1320 UTC
Wind: from the ENE (060 degrees) at 14 MPH (12 KT):0
Visibility: greater than 7 mile(s):0
Sky conditions: mostly clear Temperature: 75 F (24 C) Dew Point: 59 F (15 C) Relative Humidity: 57% Pressure (altimeter): 29.94 in. Hg (1014 hPa)
ob: LGAV 201320Z 06012KT 9999 FEW030 24/15 Q1014 NOSIG cycle: 13
Sunrise: 03:12 Sunset: 17:28 (UTC)

Paris-Aeroport Charles De Gaulle, France (LFPG) 49-01N 002-32E 109M May 20, 2018 - 09:30 AM EDT / 2018.05.20 1330 UTC
Wind: from the NE (050 degrees) at 12 MPH (10 KT) (direction variable):0
Visibility: greater than 7 mile(s):0 Temperature: 71 F (22 C) Dew Point: 44 F (7 C) Relative Humidity: 37% Pressure (altimeter): 30.09 in. Hg (1019 hPa)
ob: LFPG 201330Z 05010KT 010V090 CAVOK 22/07 Q1019 NOSIG cycle: 13
Sunrise: 04:04 Sunset: 19:28 (UTC)

TAF:2018/05/20 12:23 TAF LFPG 201100Z 2012/2118 03007KT CAVOK PROB30 TEMPO 2018/2020 FEW060TCU PROB40 TEMPO 2112/2118 SCT030TCU PROB30 TEMPO 2112/2118 3000 TSRA SCT030CB TX23/2015Z TN11/2104Z

Previous Pireps for this route
Date Aircraft Flight time Fuel used Landing rate On time
2013-10-25A330-2003.00263100No
2016-10-24A330-20003.1439805-150No
(pireps marked green are flown by you)

Route map